Time;durP1;ratioP1;P1;durP2;ratioP2;P2;SDS_P1;SDS_P2;PMS_P1;PMS_P2;Temp;Humidity;BMP_temperature;BMP_pressure;BME280_temperature;BME280_humidity;BME280_pressure;Samples;Min_cycle;Max_cycle;Signal;HPM_P1;HPM_P2
2024/04/05 00:01:22;;;;;;;0.60;0.60;;;10.70;99.90;;;;;;4994693;28;20048;-81
2024/04/05 00:03:51;;;;;;;1.10;1.10;;;10.70;99.90;;;;;;5027990;28;20443;-82
2024/04/05 00:06:16;;;;;;;0.22;0.22;;;10.70;99.90;;;;;;5011574;28;20519;-82
2024/04/05 00:08:42;;;;;;;2.50;2.40;;;10.70;99.90;;;;;;4993171;28;20136;-82
2024/04/05 00:11:08;;;;;;;0.50;0.50;;;10.60;99.90;;;;;;5028312;28;20042;-82
2024/04/05 00:13:37;;;;;;;2.25;1.55;;;10.60;99.90;;;;;;4994038;28;20045;-83
2024/04/05 00:16:07;;;;;;;0.40;0.40;;;10.60;99.90;;;;;;5025112;28;20120;-81
2024/04/05 00:18:36;;;;;;;1.20;1.17;;;10.60;99.90;;;;;;5026879;28;20159;-81
2024/04/05 00:21:05;;;;;;;0.35;0.35;;;10.60;99.90;;;;;;4991623;28;20038;-82
2024/04/05 00:23:31;;;;;;;0.85;0.85;;;10.60;99.90;;;;;;5010473;28;20049;-80
2024/04/05 00:26:02;;;;;;;0.40;0.40;;;10.60;99.90;;;;;;5026164;28;20064;-81
2024/04/05 00:28:28;;;;;;;0.70;0.70;;;10.60;99.90;;;;;;5027682;28;20037;-81
2024/04/05 00:30:54;;;;;;;0.50;0.50;;;10.50;99.90;;;;;;5023898;28;20045;-80
2024/04/05 00:33:20;;;;;;;0.68;0.68;;;10.60;99.90;;;;;;5028219;28;20034;-81
2024/04/05 00:35:54;;;;;;;0.40;0.40;;;10.60;99.90;;;;;;5026646;28;20033;-80
2024/04/05 00:38:23;;;;;;;0.47;0.47;;;10.60;99.90;;;;;;5026113;28;20091;-81
2024/04/05 00:40:49;;;;;;;0.40;0.40;;;10.60;99.90;;;;;;5026718;28;20044;-82
2024/04/05 00:43:15;;;;;;;0.40;0.40;;;10.60;99.90;;;;;;5011164;28;20045;-83
2024/04/05 00:45:42;;;;;;;0.30;0.30;;;10.60;99.90;;;;;;5026490;28;20033;-83
2024/04/05 00:48:14;;;;;;;0.50;0.50;;;10.60;99.90;;;;;;5028563;28;20112;-82
2024/04/05 00:50:40;;;;;;;0.93;0.93;;;10.60;99.90;;;;;;5028369;28;20418;-82
2024/04/05 00:53:08;;;;;;;1.10;1.02;;;10.60;99.90;;;;;;5028043;28;20051;-83
2024/04/05 00:55:37;;;;;;;0.75;0.75;;;10.60;99.90;;;;;;5028457;28;20144;-82
2024/04/05 00:58:04;;;;;;;2.90;2.33;;;10.60;99.90;;;;;;5006316;28;20056;-83
2024/04/05 01:00:31;;;;;;;0.52;0.52;;;10.60;99.90;;;;;;5023748;28;20065;-82
2024/04/05 01:02:57;;;;;;;0.40;0.40;;;10.60;99.90;;;;;;5029309;28;20060;-82
2024/04/05 01:05:23;;;;;;;;;;;10.70;99.90;;;;;;5026518;28;20121;-82
2024/04/05 01:07:52;;;;;;;1.50;1.50;;;10.70;99.90;;;;;;5026331;28;19925;-82
2024/04/05 01:10:19;;;;;;;0.30;0.30;;;10.60;99.90;;;;;;5027014;28;20045;-81
2024/04/05 01:12:45;;;;;;;3.40;1.80;;;10.60;99.90;;;;;;5025983;28;20529;-81
2024/04/05 01:15:11;;;;;;;34.92;2.50;;;10.60;99.90;;;;;;4990605;28;20475;-81
2024/04/05 01:17:37;;;;;;;0.40;0.40;;;10.60;99.90;;;;;;5019205;28;20487;-82
2024/04/05 01:20:04;;;;;;;0.73;0.73;;;10.60;99.90;;;;;;5028098;28;20033;-82
2024/04/05 01:22:34;;;;;;;5.20;0.98;;;10.60;99.90;;;;;;5027245;28;20045;-82
2024/04/05 01:25:00;;;;;;;0.40;0.40;;;10.60;99.90;;;;;;5009504;28;20056;-82
2024/04/05 01:27:26;;;;;;;0.70;0.70;;;10.60;99.90;;;;;;5027189;28;20511;-84
2024/04/05 01:29:52;;;;;;;0.52;0.52;;;10.60;99.90;;;;;;5025911;28;20052;-83
2024/04/05 01:32:17;;;;;;;0.43;0.43;;;10.60;99.90;;;;;;5025904;28;20037;-82
2024/04/05 01:34:43;;;;;;;2.22;2.08;;;10.70;99.90;;;;;;5009875;28;20037;-82
2024/04/05 01:37:09;;;;;;;0.57;0.57;;;10.70;99.90;;;;;;5024696;28;20128;-83
2024/04/05 01:39:35;;;;;;;0.60;0.60;;;10.70;99.90;;;;;;5026981;28;21172;-83
2024/04/05 01:42:01;;;;;;;7.38;0.82;;;10.90;99.90;;;;;;5024447;28;20064;-82
2024/04/05 01:44:26;;;;;;;0.47;0.47;;;10.70;99.90;;;;;;5010342;28;20053;-86
2024/04/05 01:46:52;;;;;;;0.50;0.50;;;10.70;99.90;;;;;;5008225;28;20116;-83
2024/04/05 01:49:18;;;;;;;0.60;0.60;;;10.70;99.90;;;;;;5009956;28;20037;-83
2024/04/05 01:51:43;;;;;;;0.68;0.50;;;10.70;99.90;;;;;;5025547;28;20572;-82
2024/04/05 01:54:09;;;;;;;0.40;0.40;;;10.70;99.90;;;;;;4992834;28;20029;-82
2024/04/05 01:56:35;;;;;;;2.15;2.05;;;10.80;99.90;;;;;;5025732;28;20076;-84
2024/04/05 01:59:00;;;;;;;0.30;0.30;;;10.70;99.90;;;;;;5021963;28;20049;-83
2024/04/05 02:01:26;;;;;;;0.38;0.38;;;10.80;99.90;;;;;;5006995;28;20033;-84
2024/04/05 02:03:52;;;;;;;0.30;0.30;;;10.80;99.90;;;;;;4994310;28;20118;-82
2024/04/05 02:06:18;;;;;;;0.75;0.50;;;10.80;99.90;;;;;;5027763;28;20057;-82
2024/04/05 02:08:43;;;;;;;0.38;0.38;;;10.50;99.90;;;;;;5024573;28;20429;-84
2024/04/05 02:11:09;;;;;;;0.20;0.20;;;10.80;99.90;;;;;;5025927;28;20045;-81
2024/04/05 02:13:36;;;;;;;0.38;0.38;;;10.80;99.90;;;;;;5025038;28;20152;-82
2024/04/05 02:16:02;;;;;;;0.40;0.40;;;10.80;99.90;;;;;;4993006;28;20030;-83
2024/04/05 02:18:28;;;;;;;6.18;1.52;;;10.80;99.90;;;;;;5029026;28;20407;-82
2024/04/05 02:20:56;;;;;;;0.60;0.60;;;10.80;99.90;;;;;;5027819;28;20068;-83
2024/04/05 02:23:22;;;;;;;1.00;1.00;;;10.80;99.90;;;;;;5030383;28;20438;-82
2024/04/05 02:25:48;;;;;;;0.63;0.63;;;10.70;99.90;;;;;;4995825;28;20041;-82
2024/04/05 02:28:13;;;;;;;0.32;0.32;;;10.70;99.90;;;;;;4996077;28;20063;-82
2024/04/05 02:30:39;;;;;;;0.47;0.47;;;10.70;99.90;;;;;;4997526;28;20140;-82
2024/04/05 02:33:05;;;;;;;0.38;0.38;;;10.70;99.90;;;;;;4994545;28;20045;-83
2024/04/05 02:35:32;;;;;;;0.85;0.85;;;10.70;99.90;;;;;;4996850;28;20036;-80
2024/04/05 02:37:57;;;;;;;0.65;0.65;;;10.70;99.90;;;;;;4995471;28;20133;-80
2024/04/05 02:40:23;;;;;;;0.35;0.35;;;10.70;99.90;;;;;;5013561;28;20116;-85
2024/04/05 02:42:49;;;;;;;0.30;0.30;;;10.70;99.90;;;;;;5012382;28;20077;-83
2024/04/05 02:45:15;;;;;;;0.85;0.43;;;10.70;99.90;;;;;;5012472;28;20047;-83
2024/04/05 02:47:41;;;;;;;0.40;0.40;;;10.70;99.90;;;;;;4980523;28;20039;-84
2024/04/05 02:50:07;;;;;;;0.80;0.40;;;10.60;99.90;;;;;;4996562;28;20045;-83
2024/04/05 02:52:33;;;;;;;0.45;0.45;;;10.40;99.90;;;;;;5012055;28;20033;-83
2024/04/05 02:54:59;;;;;;;0.55;0.55;;;9.60;99.90;;;;;;4996409;28;20049;-83
2024/04/05 02:57:25;;;;;;;0.40;0.40;;;10.60;99.90;;;;;;5029037;28;20137;-83
2024/04/05 02:59:50;;;;;;;0.43;0.43;;;10.60;99.90;;;;;;5026754;28;20415;-83
2024/04/05 03:02:16;;;;;;;0.30;0.30;;;10.60;99.90;;;;;;5029772;28;20052;-83
2024/04/05 03:04:42;;;;;;;0.30;0.30;;;10.50;99.90;;;;;;5025585;28;20511;-83
2024/04/05 03:07:07;;;;;;;0.80;0.80;;;10.50;99.90;;;;;;5029647;28;20076;-83
2024/04/05 03:09:35;;;;;;;0.65;0.65;;;10.50;99.90;;;;;;5027629;28;20040;-82
2024/04/05 03:12:02;;;;;;;0.30;0.30;;;10.50;99.90;;;;;;5030319;28;20048;-82
2024/04/05 03:14:28;;;;;;;0.50;0.50;;;10.60;99.90;;;;;;5029756;28;20045;-81
2024/04/05 03:16:54;;;;;;;0.50;0.50;;;10.60;99.90;;;;;;5031309;28;20468;-80
2024/04/05 03:19:20;;;;;;;0.50;0.50;;;10.60;99.90;;;;;;5035821;28;20031;-81
2024/04/05 03:21:46;;;;;;;1.27;1.02;;;10.60;99.90;;;;;;5019158;28;20120;-82
2024/04/05 03:24:12;;;;;;;0.40;0.40;;;10.70;99.90;;;;;;5032226;28;20144;-82
2024/04/05 03:26:39;;;;;;;0.30;0.30;;;10.70;99.90;;;;;;5012739;28;20144;-81
2024/04/05 03:29:04;;;;;;;0.77;0.73;;;10.70;99.90;;;;;;5027256;28;20112;-80
2024/04/05 03:31:30;;;;;;;0.30;0.30;;;10.70;99.90;;;;;;5011349;28;20044;-81
2024/04/05 03:33:56;;;;;;;0.30;0.30;;;10.70;99.90;;;;;;5026375;28;20081;-82
2024/04/05 03:36:21;;;;;;;0.40;0.40;;;10.70;99.90;;;;;;5028978;28;20044;-81
2024/04/05 03:38:50;;;;;;;0.30;0.30;;;10.60;99.90;;;;;;5027583;28;20506;-81
2024/04/05 03:41:16;;;;;;;0.40;0.40;;;10.70;99.90;;;;;;5028785;28;20048;-82
2024/04/05 03:43:42;;;;;;;0.50;0.50;;;10.60;99.90;;;;;;5028697;28;20041;-81
2024/04/05 03:46:08;;;;;;;0.40;0.40;;;10.70;99.90;;;;;;5011077;28;20057;-81
2024/04/05 03:48:33;;;;;;;0.50;0.50;;;10.70;99.90;;;;;;5012365;28;20041;-81
2024/04/05 03:50:59;;;;;;;0.63;0.63;;;10.70;99.90;;;;;;5009412;28;20426;-82
2024/04/05 03:53:25;;;;;;;0.30;0.30;;;10.70;99.90;;;;;;5025695;28;20041;-81
2024/04/05 03:55:54;;;;;;;0.40;0.40;;;10.70;99.90;;;;;;5010374;28;20034;-82
2024/04/05 03:58:21;;;;;;;1.17;1.17;;;10.70;99.90;;;;;;5008847;28;21309;-82
2024/04/05 04:00:51;;;;;;;0.40;0.40;;;10.80;99.90;;;;;;5026234;28;20107;-81
2024/04/05 04:03:17;;;;;;;0.35;0.35;;;10.80;99.90;;;;;;5026793;28;20049;-80
2024/04/05 04:05:44;;;;;;;0.50;0.50;;;10.80;99.90;;;;;;5028315;28;20042;-81
2024/04/05 04:08:10;;;;;;;0.63;0.63;;;10.80;99.90;;;;;;5028420;28;20041;-80
2024/04/05 04:10:35;;;;;;;1.10;1.10;;;10.80;99.90;;;;;;5028047;28;20051;-81
2024/04/05 04:13:01;;;;;;;0.80;0.80;;;10.80;99.90;;;;;;4994077;28;20044;-80
2024/04/05 04:15:34;;;;;;;0.50;0.50;;;10.80;99.90;;;;;;5027396;28;20037;-81
2024/04/05 04:18:00;;;;;;;0.40;0.40;;;10.80;99.90;;;;;;5025966;28;20044;-84
2024/04/05 04:20:25;;;;;;;;;;;10.80;99.90;;;;;;5028421;28;20479;-84
2024/04/05 04:22:52;;;;;;;0.40;0.40;;;10.80;99.90;;;;;;5029096;28;19972;-84
2024/04/05 04:25:17;;;;;;;;;;;10.80;99.90;;;;;;5029398;28;20045;-84
2024/04/05 04:27:43;;;;;;;8.18;2.65;;;10.80;99.90;;;;;;5018570;28;19917;-85
2024/04/05 04:30:09;;;;;;;0.40;0.40;;;10.80;99.90;;;;;;5009579;28;20403;-83
2024/04/05 04:32:35;;;;;;;0.40;0.40;;;10.80;99.90;;;;;;5011945;28;20471;-84
2024/04/05 04:35:01;;;;;;;0.60;0.60;;;11.60;99.90;;;;;;4994813;28;20139;-85
2024/04/05 04:37:27;;;;;;;;;;;11.10;99.90;;;;;;5012512;28;20052;-82
2024/04/05 04:40:00;;;;;;;0.40;0.40;;;10.80;99.90;;;;;;5029525;28;19925;-84
2024/04/05 04:42:25;;;;;;;4.15;1.55;;;10.30;99.90;;;;;;4979492;28;20033;-84
2024/04/05 04:47:28;;;;;;;0.40;0.40;;;10.70;99.90;;;;;;6107476;22;20061;-83
2024/04/05 04:50:00;;;;;;;1.42;1.33;;;10.70;99.90;;;;;;5028753;28;20056;-84
2024/04/05 04:52:42;;;;;;;1.95;0.50;;;10.70;99.90;;;;;;5029396;28;20507;-83
2024/04/05 04:55:18;;;;;;;0.40;0.40;;;11.60;99.90;;;;;;5030952;28;20052;-84
2024/04/05 04:57:50;;;;;;;0.47;0.47;;;11.00;99.90;;;;;;5012163;28;20037;-84
2024/04/05 05:00:16;;;;;;;0.40;0.40;;;10.70;99.90;;;;;;5012771;28;20120;-85
2024/04/05 05:02:43;;;;;;;0.40;0.40;;;10.70;99.90;;;;;;5012953;28;20191;-86
2024/04/05 05:05:09;;;;;;;0.40;0.40;;;10.70;99.90;;;;;;5044924;28;20037;-86
2024/04/05 05:07:35;;;;;;;0.40;0.40;;;11.10;99.90;;;;;;5032406;28;20044;-85
2024/04/05 05:10:01;;;;;;;0.70;0.70;;;10.70;99.90;;;;;;5031030;28;20347;-84
2024/04/05 05:12:27;;;;;;;0.52;0.52;;;10.70;99.90;;;;;;5050994;28;20060;-84
2024/04/05 05:14:53;;;;;;;0.40;0.40;;;10.70;99.90;;;;;;5046186;28;20048;-82
2024/04/05 05:17:19;;;;;;;0.40;0.40;;;10.70;99.90;;;;;;5012312;28;20037;-83
2024/04/05 05:19:45;;;;;;;0.50;0.50;;;10.80;99.90;;;;;;5046345;28;20039;-83
2024/04/05 05:22:10;;;;;;;1.27;0.55;;;10.70;99.90;;;;;;5018244;28;20124;-84
2024/04/05 05:24:36;;;;;;;2.38;1.08;;;10.80;99.90;;;;;;5015640;28;20175;-84
2024/04/05 05:27:02;;;;;;;0.40;0.40;;;10.70;99.90;;;;;;5026797;28;21348;-84
2024/04/05 05:29:28;;;;;;;0.35;0.35;;;10.70;99.90;;;;;;5047784;28;20593;-84
2024/04/05 05:31:54;;;;;;;0.43;0.43;;;10.70;99.90;;;;;;5015621;28;20033;-85
2024/04/05 05:34:20;;;;;;;0.40;0.40;;;11.50;99.90;;;;;;5046840;28;20068;-87
2024/04/05 05:36:46;;;;;;;0.68;0.68;;;10.70;99.90;;;;;;5026292;28;20130;-86
2024/04/05 05:39:13;;;;;;;0.50;0.50;;;10.80;99.90;;;;;;5037769;28;20711;-86
2024/04/05 05:41:39;;;;;;;0.88;0.88;;;10.90;99.90;;;;;;5007895;28;20060;-86
2024/04/05 05:44:04;;;;;;;;;;;10.80;99.90;;;;;;5012360;28;20041;-84
2024/04/05 05:46:30;;;;;;;0.40;0.40;;;10.90;99.90;;;;;;5029288;28;20412;-83
2024/04/05 05:48:57;;;;;;;0.30;0.30;;;10.90;99.90;;;;;;5045315;28;20045;-84
2024/04/05 05:51:22;;;;;;;0.40;0.40;;;10.90;99.90;;;;;;5044474;28;20049;-84
2024/04/05 05:53:48;;;;;;;0.40;0.40;;;11.00;99.90;;;;;;5047053;28;20043;-85
2024/04/05 05:56:14;;;;;;;0.40;0.40;;;11.10;99.90;;;;;;5046976;28;20049;-83
2024/04/05 05:58:39;;;;;;;0.40;0.40;;;11.20;99.90;;;;;;5047598;28;20048;-83
2024/04/05 06:01:06;;;;;;;0.38;0.38;;;11.20;99.90;;;;;;5016996;28;20603;-82
2024/04/05 06:03:33;;;;;;;0.40;0.35;;;11.20;99.90;;;;;;5047422;28;20045;-85
2024/04/05 06:06:00;;;;;;;0.30;0.30;;;11.20;99.90;;;;;;5016514;28;20037;-82
2024/04/05 06:08:26;;;;;;;0.30;0.30;;;11.30;99.90;;;;;;5045092;28;20040;-82
2024/04/05 06:10:58;;;;;;;0.40;0.40;;;11.30;99.90;;;;;;5047023;28;20037;-82
2024/04/05 06:13:24;;;;;;;0.50;0.50;;;11.30;99.90;;;;;;5031903;28;20136;-81
2024/04/05 06:15:55;;;;;;;0.40;0.40;;;11.40;99.90;;;;;;5033937;28;20495;-82
2024/04/05 06:18:21;;;;;;;0.60;0.57;;;11.40;99.90;;;;;;5048341;28;20044;-82
2024/04/05 06:20:57;;;;;;;0.40;0.40;;;11.40;99.90;;;;;;5049094;28;20052;-82
2024/04/05 06:23:26;;;;;;;2.92;1.58;;;11.30;99.90;;;;;;5014603;28;20037;-81
2024/04/05 06:25:58;;;;;;;0.47;0.47;;;11.40;99.90;;;;;;5047419;28;20049;-83
2024/04/05 06:28:24;;;;;;;0.75;0.75;;;11.30;99.90;;;;;;5057062;28;20415;-85
2024/04/05 06:30:50;;;;;;;0.40;0.40;;;12.10;99.90;;;;;;5056339;28;20052;-87
2024/04/05 06:33:16;;;;;;;2.78;2.42;;;11.30;99.90;;;;;;5049377;28;20029;-84
2024/04/05 06:35:42;;;;;;;;;;;11.40;99.90;;;;;;5032376;28;20041;-85
2024/04/05 06:38:08;;;;;;;0.52;0.52;;;11.40;99.90;;;;;;5065699;28;20282;-86
2024/04/05 06:40:35;;;;;;;0.40;0.40;;;11.40;99.90;;;;;;5049788;28;20036;-78
2024/04/05 06:43:02;;;;;;;2.15;2.05;;;11.40;99.90;;;;;;5052725;28;20402;-87
2024/04/05 06:45:28;;;;;;;0.40;0.40;;;11.50;99.90;;;;;;5041075;28;20115;-87
2024/04/05 06:47:55;;;;;;;6.03;2.70;;;11.50;99.90;;;;;;5035109;28;20158;-86
2024/04/05 06:50:24;;;;;;;0.70;0.70;;;11.60;99.90;;;;;;5035908;28;20411;-86
2024/04/05 06:52:49;;;;;;;0.30;0.30;;;11.60;99.90;;;;;;5051121;28;20132;-86
2024/04/05 06:55:19;;;;;;;1.10;0.65;;;11.70;99.90;;;;;;5050521;28;20037;-85
2024/04/05 06:57:44;;;;;;;0.47;0.43;;;11.70;99.90;;;;;;5017917;28;20044;-85
2024/04/05 07:00:10;;;;;;;0.20;0.20;;;11.70;99.90;;;;;;5055518;28;20037;-89
2024/04/05 07:02:36;;;;;;;;;;;11.80;99.90;;;;;;5052950;28;20044;-85
2024/04/05 07:05:02;;;;;;;0.88;0.88;;;11.90;99.90;;;;;;5036506;28;19924;-88
2024/04/05 07:07:28;;;;;;;;;;;11.90;99.90;;;;;;5037059;28;20040;-88
2024/04/05 07:09:54;;;;;;;2.72;0.90;;;11.90;99.90;;;;;;5057950;28;19923;-89
2024/04/05 07:12:20;;;;;;;0.70;0.70;;;12.00;99.90;;;;;;5060508;28;20510;-87
2024/04/05 07:14:46;;;;;;;0.57;0.57;;;12.00;99.90;;;;;;5070333;28;20040;-88
2024/04/05 07:17:12;;;;;;;0.47;0.47;;;12.10;99.90;;;;;;5057485;28;20045;-85
2024/04/05 07:19:38;;;;;;;0.55;0.45;;;12.10;99.90;;;;;;5055624;28;20501;-84
2024/04/05 07:22:03;;;;;;;0.40;0.40;;;12.20;99.90;;;;;;5051711;28;20037;-83
2024/04/05 07:24:29;;;;;;;0.40;0.40;;;12.20;99.90;;;;;;5050959;28;20033;-80
2024/04/05 07:26:55;;;;;;;12.55;2.92;;;12.20;99.90;;;;;;5050481;28;20055;-80
2024/04/05 07:29:21;;;;;;;6.25;0.82;;;12.30;99.90;;;;;;5049156;28;20052;-87
2024/04/05 07:31:49;;;;;;;0.47;0.47;;;12.40;99.90;;;;;;5052975;28;20040;-86
2024/04/05 07:34:15;;;;;;;0.45;0.45;;;12.40;99.90;;;;;;5037463;28;20127;-85
2024/04/05 07:36:41;;;;;;;0.77;0.77;;;12.50;99.90;;;;;;5028922;28;20518;-86
2024/04/05 07:39:08;;;;;;;0.40;0.40;;;12.50;99.90;;;;;;5051395;28;20036;-84
2024/04/05 07:41:34;;;;;;;0.43;0.43;;;12.50;99.90;;;;;;5053180;28;20041;-88
2024/04/05 07:44:02;;;;;;;0.88;0.82;;;12.60;99.90;;;;;;5050770;28;20410;-85
2024/04/05 07:46:28;;;;;;;0.45;0.45;;;;;;;;;;5032997;28;20048;-85
2024/04/05 07:48:54;;;;;;;0.40;0.40;;;12.70;99.90;;;;;;5051986;28;20139;-85
2024/04/05 07:51:20;;;;;;;11.18;1.85;;;12.80;99.90;;;;;;5050392;28;20128;-85
2024/04/05 07:53:47;;;;;;;;;;;12.80;99.90;;;;;;5055741;28;20045;-86
2024/04/05 07:56:13;;;;;;;0.65;0.65;;;12.90;99.90;;;;;;5033507;28;19960;-84
2024/04/05 07:58:39;;;;;;;;;;;13.00;99.90;;;;;;5051137;28;20045;-85
2024/04/05 08:01:07;;;;;;;0.40;0.40;;;13.10;99.90;;;;;;5051413;28;19916;-86
2024/04/05 08:03:33;;;;;;;1.63;1.55;;;13.20;99.90;;;;;;5051074;28;20114;-85
2024/04/05 08:06:00;;;;;;;;;;;13.20;99.90;;;;;;5054134;28;20045;-87
2024/04/05 08:08:26;;;;;;;;;;;13.20;99.90;;;;;;5048187;28;19986;-86
2024/04/05 08:11:02;;;;;;;0.20;0.20;;;13.20;99.90;;;;;;5033562;28;19920;-86
2024/04/05 08:13:28;;;;;;;0.65;0.50;;;13.20;99.90;;;;;;5046276;28;20051;-86
2024/04/05 08:15:54;;;;;;;;;;;13.30;99.90;;;;;;5050439;28;20445;-86
2024/04/05 08:18:20;;;;;;;0.50;0.50;;;13.40;99.90;;;;;;5052709;28;19916;-84
2024/04/05 08:20:45;;;;;;;;;;;13.50;99.90;;;;;;5051767;28;20037;-84
2024/04/05 08:23:11;;;;;;;0.30;0.30;;;13.50;99.90;;;;;;5052900;28;19925;-85
2024/04/05 08:25:37;;;;;;;0.30;0.30;;;13.60;99.90;;;;;;5049028;28;20041;-85
2024/04/05 08:28:03;;;;;;;1.80;0.40;;;13.70;99.90;;;;;;5050891;28;20068;-86
2024/04/05 08:30:28;;;;;;;;;;;13.80;99.90;;;;;;5047966;28;20048;-88
2024/04/05 08:32:54;;;;;;;1.65;0.52;;;13.80;99.90;;;;;;5051867;28;19925;-88
2024/04/05 08:35:19;;;;;;;0.30;0.30;;;13.90;99.90;;;;;;5031461;28;20041;-86
2024/04/05 08:37:45;;;;;;;0.52;0.52;;;14.00;99.90;;;;;;5051425;28;20025;-86
2024/04/05 08:40:11;;;;;;;0.77;0.77;;;14.00;99.90;;;;;;5049969;28;20406;-86
2024/04/05 08:42:37;;;;;;;;;;;14.00;99.90;;;;;;5036893;28;20071;-87
2024/04/05 08:45:04;;;;;;;0.35;0.35;;;14.00;99.90;;;;;;5049529;28;19920;-88
2024/04/05 08:47:33;;;;;;;0.60;0.60;;;14.00;99.90;;;;;;5053218;28;20045;-87
2024/04/05 08:50:03;;;;;;;0.40;0.40;;;13.90;99.90;;;;;;5053202;28;20056;-86
2024/04/05 08:52:29;;;;;;;0.38;0.38;;;14.00;99.90;;;;;;5052518;28;20040;-87
2024/04/05 08:54:57;;;;;;;0.30;0.30;;;13.90;99.90;;;;;;5033283;28;20052;-85
2024/04/05 08:57:29;;;;;;;0.30;0.30;;;14.00;99.90;;;;;;5053104;28;20086;-86
2024/04/05 08:59:55;;;;;;;0.90;0.90;;;14.00;99.90;;;;;;5053463;28;20044;-88
2024/04/05 09:02:23;;;;;;;;;;;14.00;99.90;;;;;;5057707;28;20047;-88
2024/04/05 09:04:49;;;;;;;;;;;14.00;99.90;;;;;;5054869;28;19932;-85
2024/04/05 09:07:15;;;;;;;;;;;14.00;99.90;;;;;;5055468;28;19924;-88
2024/04/05 09:09:46;;;;;;;;;;;14.00;99.90;;;;;;5074044;28;19940;-87
2024/04/05 09:12:14;;;;;;;;;;;14.00;99.90;;;;;;5072754;28;19948;-85
2024/04/05 09:14:39;;;;;;;;;;;14.10;99.90;;;;;;5061824;28;20043;-84
2024/04/05 09:17:15;;;;;;;;;;;14.10;99.90;;;;;;5058860;28;19963;-88
2024/04/05 09:19:41;;;;;;;;;;;14.20;99.90;;;;;;5054568;28;19984;-86
2024/04/05 09:22:07;;;;;;;;;;;14.10;99.90;;;;;;5047810;28;19959;-85
2024/04/05 09:24:33;;;;;;;;;;;13.90;99.90;;;;;;5072869;28;19917;-87
2024/04/05 09:27:00;;;;;;;;;;;14.00;99.90;;;;;;5071195;28;19924;-85
2024/04/05 09:29:26;;;;;;;;;;;13.90;99.90;;;;;;5052822;28;20275;-85
2024/04/05 09:31:52;;;;;;;;;;;13.80;99.90;;;;;;5053193;28;19927;-85
2024/04/05 09:34:20;;;;;;;;;;;13.60;99.90;;;;;;5023799;28;20000;-86
2024/04/05 09:36:46;;;;;;;;;;;13.30;99.90;;;;;;5060259;28;19920;-84
2024/04/05 09:39:16;;;;;;;;;;;13.50;99.90;;;;;;5050310;28;19925;-83
2024/04/05 09:41:43;;;;;;;;;;;13.40;99.90;;;;;;5048509;28;20003;-82
2024/04/05 09:44:09;;;;;;;;;;;13.40;99.90;;;;;;5047649;28;20011;-81
2024/04/05 09:46:35;;;;;;;;;;;13.40;99.90;;;;;;5050335;28;20008;-83
2024/04/05 09:49:02;;;;;;;;;;;13.40;99.90;;;;;;5047687;28;19971;-81
2024/04/05 09:51:44;;;;;;;;;;;13.40;99.90;;;;;;5051281;28;19921;-84
2024/04/05 09:54:10;;;;;;;;;;;14.10;99.90;;;;;;5051990;28;19921;-83
2024/04/05 09:56:38;;;;;;;;;;;13.40;99.90;;;;;;5047723;28;20447;-83
2024/04/05 09:59:05;;;;;;;;;;;13.40;99.90;;;;;;5042119;28;19923;-84
2024/04/05 10:01:31;;;;;;;;;;;13.30;99.90;;;;;;5048813;28;20003;-84
2024/04/05 10:03:58;;;;;;;;;;;13.30;99.90;;;;;;5047840;28;20081;-85
2024/04/05 10:06:33;;;;;;;;;;;13.30;99.90;;;;;;5030780;28;20022;-83
2024/04/05 10:08:59;;;;;;;;;;;13.20;99.90;;;;;;5049146;28;20007;-84
2024/04/05 10:11:25;;;;;;;;;;;13.20;99.90;;;;;;5051681;28;20003;-84
2024/04/05 10:13:59;;;;;;;;;;;13.20;99.90;;;;;;5050414;28;19929;-86
2024/04/05 10:16:25;;;;;;;;;;;13.20;99.90;;;;;;5052755;28;19924;-84
2024/04/05 10:18:51;;;;;;;;;;;13.10;99.90;;;;;;5052976;28;20014;-84
2024/04/05 10:21:18;;;;;;;;;;;13.10;99.90;;;;;;5052274;28;19964;-83
2024/04/05 10:23:44;;;;;;;;;;;13.10;99.90;;;;;;5052763;28;19962;-83
2024/04/05 10:26:17;;;;;;;;;;;13.10;99.90;;;;;;5033694;28;19920;-82
2024/04/05 10:28:42;;;;;;;;;;;13.00;99.90;;;;;;5051875;28;19978;-81
2024/04/05 10:31:10;;;;;;;;;;;13.00;99.90;;;;;;5048894;28;20275;-82
2024/04/05 10:33:38;;;;;;;;;;;13.10;99.90;;;;;;5059090;28;19943;-82
2024/04/05 10:36:03;;;;;;;;;;;13.00;99.90;;;;;;5051467;28;19960;-82
2024/04/05 10:38:29;;;;;;;;;;;13.00;99.90;;;;;;5036934;28;19962;-81
2024/04/05 10:41:01;;;;;;;;;;;13.10;99.90;;;;;;5038431;28;19982;-82
2024/04/05 10:43:27;;;;;;;;;;;13.00;99.90;;;;;;5059150;28;19921;-83
2024/04/05 10:45:54;;;;;;;;;;;13.10;99.90;;;;;;5055242;28;19929;-81
2024/04/05 10:48:21;;;;;;;;;;;13.10;99.90;;;;;;5056000;28;20007;-83
2024/04/05 10:50:48;;;;;;;;;;;13.10;99.90;;;;;;5036451;28;19928;-83
2024/04/05 10:53:17;;;;;;;;;;;13.10;99.90;;;;;;5054616;28;19935;-82
2024/04/05 10:55:44;;;;;;;;;;;13.80;99.90;;;;;;5054722;28;20393;-82
2024/04/05 10:58:10;;;;;;;;;;;13.30;99.90;;;;;;5057887;28;19998;-82
2024/04/05 11:00:36;;;;;;;;;;;13.40;99.90;;;;;;5054536;28;19976;-82
2024/04/05 11:03:03;;;;;;;;;;;13.50;99.90;;;;;;5058018;28;20013;-82
2024/04/05 11:05:29;;;;;;;;;;;13.50;99.90;;;;;;5054005;28;19936;-82
2024/04/05 11:07:59;;;;;;;;;;;13.50;99.90;;;;;;5054554;28;19920;-81
2024/04/05 11:10:28;;;;;;;;;;;13.50;99.90;;;;;;5056233;28;19925;-83
2024/04/05 11:12:54;;;;;;;;;;;13.60;99.90;;;;;;5057041;28;19984;-83
2024/04/05 11:15:20;;;;;;;;;;;13.50;99.90;;;;;;5055789;28;19944;-83
2024/04/05 11:17:46;;;;;;;;;;;14.40;99.90;;;;;;5059957;28;19931;-82
2024/04/05 11:20:13;;;;;;;;;;;13.70;99.90;;;;;;5038987;28;19971;-82
2024/04/05 11:22:45;;;;;;;;;;;13.80;99.90;;;;;;5039575;28;19928;-83
2024/04/05 11:25:20;;;;;;;;;;;13.70;99.90;;;;;;5054526;28;19920;-83
2024/04/05 11:27:46;;;;;;;;;;;13.80;99.90;;;;;;5041262;28;20457;-85
2024/04/05 11:30:12;;;;;;;;;;;13.70;99.90;;;;;;5020030;28;19968;-84
2024/04/05 11:32:40;;;;;;;;;;;13.60;99.90;;;;;;5018591;28;19916;-83
2024/04/05 11:35:07;;;;;;;;;;;13.50;99.90;;;;;;5032183;28;19960;-84
2024/04/05 11:37:32;;;;;;;;;;;13.70;99.90;;;;;;5034689;28;19928;-82
2024/04/05 11:39:59;;;;;;;;;;;13.50;99.90;;;;;;5036529;28;19916;-82
2024/04/05 11:42:24;;;;;;;;;;;13.50;99.90;;;;;;5052479;28;19921;-83
2024/04/05 11:44:50;;;;;;;;;;;13.50;99.90;;;;;;5020514;28;19916;-82
2024/04/05 11:47:21;;;;;;;;;;;14.80;99.90;;;;;;5035711;28;20002;-84
2024/04/05 11:49:47;;;;;;;;;;;13.70;99.90;;;;;;5048496;28;19920;-83
2024/04/05 11:52:13;;;;;;;;;;;13.80;99.90;;;;;;5054321;28;19917;-84
2024/04/05 11:54:39;;;;;;;;;;;13.80;99.90;;;;;;5055168;28;19951;-83
2024/04/05 11:57:04;;;;;;;;;;;13.80;99.90;;;;;;5054763;28;19924;-86
2024/04/05 11:59:30;;;;;;;;;;;14.00;99.90;;;;;;5051366;28;19964;-84
2024/04/05 12:01:55;;;;;;;;;;;13.80;99.90;;;;;;5054003;28;19916;-84
2024/04/05 12:04:23;;;;;;;;;;;13.80;99.90;;;;;;5058111;28;19923;-85
2024/04/05 12:06:50;;;;;;;;;;;13.80;99.90;;;;;;5062955;28;19924;-86
2024/04/05 12:09:19;;;;;;;;;;;13.70;99.90;;;;;;5056213;28;19917;-83
2024/04/05 12:11:45;;;;;;;;;;;13.70;99.90;;;;;;5051433;28;19920;-83
2024/04/05 12:14:11;;;;;;;;;;;13.60;99.90;;;;;;5067479;28;20020;-84
2024/04/05 12:16:37;;;;;;;;;;;13.60;99.90;;;;;;5058502;28;20298;-83
2024/04/05 12:19:02;;;;;;;;;;;13.40;99.90;;;;;;5051807;28;20353;-81
2024/04/05 12:21:28;;;;;;;;;;;13.50;99.90;;;;;;5053698;28;19967;-81
2024/04/05 12:23:53;;;;;;;;;;;13.40;99.90;;;;;;5057412;28;20443;-80
2024/04/05 12:26:19;;;;;;;;;;;13.40;99.90;;;;;;5052227;28;19956;-82
2024/04/05 12:28:49;;;;;;;;;;;13.30;99.90;;;;;;5048788;28;19921;-82
2024/04/05 12:31:15;;;;;;;;;;;13.30;99.90;;;;;;5017104;28;20446;-81
2024/04/05 12:33:40;;;;;;;;;;;13.30;99.90;;;;;;5046302;28;20020;-80
2024/04/05 12:36:06;;;;;;;;;;;13.30;99.90;;;;;;5050212;28;19970;-82
2024/04/05 12:38:38;;;;;;;;;;;13.40;99.90;;;;;;5019629;28;20380;-82
2024/04/05 12:41:08;;;;;;;;;;;13.40;99.90;;;;;;5035561;28;20297;-80
2024/04/05 12:43:37;;;;;;;;;;;13.50;99.90;;;;;;5058881;28;19920;-81
2024/04/05 12:46:06;;;;;;;;;;;13.60;99.90;;;;;;5050916;28;19928;-80
2024/04/05 12:48:35;;;;;;;;;;;13.70;99.90;;;;;;5054393;28;19955;-79
2024/04/05 12:51:05;;;;;;;;;;;13.80;99.90;;;;;;5051960;28;19943;-84
2024/04/05 12:53:31;;;;;;;;;;;14.10;99.90;;;;;;5050594;28;19933;-80
2024/04/05 12:55:58;;;;;;;;;;;14.20;99.90;;;;;;5051957;28;19917;-82
2024/04/05 12:58:26;;;;;;;;;;;14.30;99.90;;;;;;5054321;28;20435;-82
2024/04/05 13:00:52;;;;;;;;;;;14.20;99.90;;;;;;5032796;28;19971;-82
2024/04/05 13:03:19;;;;;;;;;;;14.20;99.90;;;;;;5052491;28;19967;-80
2024/04/05 13:05:44;;;;;;;;;;;14.20;99.90;;;;;;5052240;28;19956;-83
2024/04/05 13:08:10;;;;;;;;;;;14.40;99.90;;;;;;5035729;28;20354;-78
2024/04/05 13:10:36;;;;;;;;;;;14.60;99.90;;;;;;5054169;28;19967;-82
2024/04/05 13:13:01;;;;;;;;;;;14.90;99.90;;;;;;5017665;28;19920;-80
2024/04/05 13:15:27;;;;;;;;;;;15.00;99.90;;;;;;5030033;28;20328;-81
2024/04/05 13:17:53;;;;;;;;;;;15.00;99.90;;;;;;5029732;28;19917;-79